sensor_id;sensor_type;location;lat;lon;timestamp;P1;durP1;ratioP1;P2;durP2;ratioP2
1995;SDS011;38556;47.068;15.408;2023-04-01T00:02:16;17.50;;;16.70;;
1995;SDS011;38556;47.068;15.408;2023-04-01T00:04:43;18.42;;;17.52;;
1995;SDS011;38556;47.068;15.408;2023-04-01T00:07:11;17.95;;;17.05;;
1995;SDS011;38556;47.068;15.408;2023-04-01T00:09:38;17.73;;;16.83;;
1995;SDS011;38556;47.068;15.408;2023-04-01T00:12:06;17.88;;;16.88;;
1995;SDS011;38556;47.068;15.408;2023-04-01T00:14:34;17.90;;;16.90;;
1995;SDS011;38556;47.068;15.408;2023-04-01T00:17:02;17.58;;;16.67;;
1995;SDS011;38556;47.068;15.408;2023-04-01T00:19:29;17.55;;;16.75;;
1995;SDS011;38556;47.068;15.408;2023-04-01T00:21:58;17.50;;;16.70;;
1995;SDS011;38556;47.068;15.408;2023-04-01T00:24:25;18.65;;;17.65;;
1995;SDS011;38556;47.068;15.408;2023-04-01T00:26:52;18.35;;;17.13;;
1995;SDS011;38556;47.068;15.408;2023-04-01T00:29:21;17.80;;;16.90;;
1995;SDS011;38556;47.068;15.408;2023-04-01T00:31:49;17.35;;;16.55;;
1995;SDS011;38556;47.068;15.408;2023-04-01T00:34:16;18.33;;;17.15;;
1995;SDS011;38556;47.068;15.408;2023-04-01T00:36:43;17.35;;;16.50;;
1995;SDS011;38556;47.068;15.408;2023-04-01T00:39:10;17.55;;;16.50;;
1995;SDS011;38556;47.068;15.408;2023-04-01T00:41:38;17.48;;;16.67;;
1995;SDS011;38556;47.068;15.408;2023-04-01T00:44:14;17.75;;;16.85;;
1995;SDS011;38556;47.068;15.408;2023-04-01T00:46:45;17.92;;;17.02;;
1995;SDS011;38556;47.068;15.408;2023-04-01T00:49:12;18.00;;;17.10;;
1995;SDS011;38556;47.068;15.408;2023-04-01T00:51:40;18.17;;;17.27;;
1995;SDS011;38556;47.068;15.408;2023-04-01T00:54:09;17.83;;;17.02;;
1995;SDS011;38556;47.068;15.408;2023-04-01T00:56:37;17.83;;;16.83;;
1995;SDS011;38556;47.068;15.408;2023-04-01T00:59:11;16.75;;;16.05;;
1995;SDS011;38556;47.068;15.408;2023-04-01T01:01:42;16.75;;;16.05;;
1995;SDS011;38556;47.068;15.408;2023-04-01T01:04:21;17.27;;;16.58;;
1995;SDS011;38556;47.068;15.408;2023-04-01T01:06:52;17.23;;;16.42;;
1995;SDS011;38556;47.068;15.408;2023-04-01T01:09:30;18.20;;;17.33;;
1995;SDS011;38556;47.068;15.408;2023-04-01T01:12:06;17.15;;;16.35;;
1995;SDS011;38556;47.068;15.408;2023-04-01T01:14:42;17.35;;;16.30;;
1995;SDS011;38556;47.068;15.408;2023-04-01T01:17:23;17.15;;;16.35;;
1995;SDS011;38556;47.068;15.408;2023-04-01T01:20:01;17.40;;;16.60;;
1995;SDS011;38556;47.068;15.408;2023-04-01T01:26:31;18.75;;;17.65;;
1995;SDS011;38556;47.068;15.408;2023-04-01T01:29:08;17.70;;;16.90;;
1995;SDS011;38556;47.068;15.408;2023-04-01T01:31:46;18.13;;;17.13;;
1995;SDS011;38556;47.068;15.408;2023-04-01T01:34:20;18.70;;;17.50;;
1995;SDS011;38556;47.068;15.408;2023-04-01T01:36:53;18.30;;;17.50;;
1995;SDS011;38556;47.068;15.408;2023-04-01T01:39:25;17.65;;;16.80;;
1995;SDS011;38556;47.068;15.408;2023-04-01T01:41:57;17.95;;;17.05;;
1995;SDS011;38556;47.068;15.408;2023-04-01T01:44:27;18.10;;;17.30;;
1995;SDS011;38556;47.068;15.408;2023-04-01T01:46:56;18.60;;;17.60;;
1995;SDS011;38556;47.068;15.408;2023-04-01T01:49:24;18.58;;;17.67;;
1995;SDS011;38556;47.068;15.408;2023-04-01T01:51:53;18.98;;;17.98;;
1995;SDS011;38556;47.068;15.408;2023-04-01T01:54:21;19.00;;;17.90;;
1995;SDS011;38556;47.068;15.408;2023-04-01T01:56:49;18.35;;;17.35;;
1995;SDS011;38556;47.068;15.408;2023-04-01T01:59:21;18.42;;;17.42;;
1995;SDS011;38556;47.068;15.408;2023-04-01T02:01:52;18.48;;;17.50;;
1995;SDS011;38556;47.068;15.408;2023-04-01T02:04:24;18.38;;;17.48;;
1995;SDS011;38556;47.068;15.408;2023-04-01T02:06:56;17.52;;;16.73;;
1995;SDS011;38556;47.068;15.408;2023-04-01T02:09:26;19.30;;;18.20;;
1995;SDS011;38556;47.068;15.408;2023-04-01T02:11:56;19.52;;;18.42;;
1995;SDS011;38556;47.068;15.408;2023-04-01T02:14:25;19.65;;;18.65;;
1995;SDS011;38556;47.068;15.408;2023-04-01T02:16:57;18.92;;;18.05;;
1995;SDS011;38556;47.068;15.408;2023-04-01T02:19:27;20.45;;;19.35;;
1995;SDS011;38556;47.068;15.408;2023-04-01T02:22:00;19.20;;;18.30;;
1995;SDS011;38556;47.068;15.408;2023-04-01T02:24:30;20.20;;;19.15;;
1995;SDS011;38556;47.068;15.408;2023-04-01T02:27:00;20.05;;;19.10;;
1995;SDS011;38556;47.068;15.408;2023-04-01T02:29:28;19.42;;;18.50;;
1995;SDS011;38556;47.068;15.408;2023-04-01T02:31:55;20.38;;;19.38;;
1995;SDS011;38556;47.068;15.408;2023-04-01T02:34:24;19.58;;;18.65;;
1995;SDS011;38556;47.068;15.408;2023-04-01T02:36:51;19.10;;;18.20;;
1995;SDS011;38556;47.068;15.408;2023-04-01T02:39:21;19.02;;;18.13;;
1995;SDS011;38556;47.068;15.408;2023-04-01T02:41:50;18.67;;;17.77;;
1995;SDS011;38556;47.068;15.408;2023-04-01T02:44:18;18.73;;;17.83;;
1995;SDS011;38556;47.068;15.408;2023-04-01T02:46:46;19.10;;;18.20;;
1995;SDS011;38556;47.068;15.408;2023-04-01T02:49:13;18.25;;;17.45;;
1995;SDS011;38556;47.068;15.408;2023-04-01T02:51:40;18.77;;;17.88;;
1995;SDS011;38556;47.068;15.408;2023-04-01T02:54:07;18.98;;;17.98;;
1995;SDS011;38556;47.068;15.408;2023-04-01T02:56:36;19.30;;;18.30;;
1995;SDS011;38556;47.068;15.408;2023-04-01T02:59:03;18.80;;;17.80;;
1995;SDS011;38556;47.068;15.408;2023-04-01T03:01:31;18.55;;;17.75;;
1995;SDS011;38556;47.068;15.408;2023-04-01T03:03:58;19.33;;;18.33;;
1995;SDS011;38556;47.068;15.408;2023-04-01T03:06:26;19.05;;;17.95;;
1995;SDS011;38556;47.068;15.408;2023-04-01T03:08:53;19.30;;;18.40;;
1995;SDS011;38556;47.068;15.408;2023-04-01T03:11:21;19.27;;;18.38;;
1995;SDS011;38556;47.068;15.408;2023-04-01T03:13:49;19.60;;;18.60;;
1995;SDS011;38556;47.068;15.408;2023-04-01T03:16:16;18.98;;;18.02;;
1995;SDS011;38556;47.068;15.408;2023-04-01T03:18:44;19.58;;;18.35;;
1995;SDS011;38556;47.068;15.408;2023-04-01T03:21:12;19.10;;;18.20;;
1995;SDS011;38556;47.068;15.408;2023-04-01T03:23:41;19.48;;;18.52;;
1995;SDS011;38556;47.068;15.408;2023-04-01T03:26:08;18.80;;;17.90;;
1995;SDS011;38556;47.068;15.408;2023-04-01T03:28:35;19.15;;;18.05;;
1995;SDS011;38556;47.068;15.408;2023-04-01T03:31:04;18.17;;;17.33;;
1995;SDS011;38556;47.068;15.408;2023-04-01T03:33:32;19.00;;;18.10;;
1995;SDS011;38556;47.068;15.408;2023-04-01T03:35:59;18.23;;;17.38;;
1995;SDS011;38556;47.068;15.408;2023-04-01T03:38:26;18.95;;;18.05;;
1995;SDS011;38556;47.068;15.408;2023-04-01T03:40:53;18.80;;;17.80;;
1995;SDS011;38556;47.068;15.408;2023-04-01T03:43:20;18.48;;;17.58;;
1995;SDS011;38556;47.068;15.408;2023-04-01T03:45:49;18.88;;;17.90;;
1995;SDS011;38556;47.068;15.408;2023-04-01T03:48:18;19.85;;;18.75;;
1995;SDS011;38556;47.068;15.408;2023-04-01T03:50:46;20.17;;;19.15;;
1995;SDS011;38556;47.068;15.408;2023-04-01T03:53:14;19.27;;;18.38;;
1995;SDS011;38556;47.068;15.408;2023-04-01T03:55:41;21.42;;;20.23;;
1995;SDS011;38556;47.068;15.408;2023-04-01T03:58:08;20.52;;;19.33;;
1995;SDS011;38556;47.068;15.408;2023-04-01T04:00:36;23.30;;;21.92;;
1995;SDS011;38556;47.068;15.408;2023-04-01T04:03:03;23.00;;;21.90;;
1995;SDS011;38556;47.068;15.408;2023-04-01T04:05:33;22.88;;;21.65;;
1995;SDS011;38556;47.068;15.408;2023-04-01T04:08:01;25.17;;;23.58;;
1995;SDS011;38556;47.068;15.408;2023-04-01T04:10:28;22.77;;;21.27;;
1995;SDS011;38556;47.068;15.408;2023-04-01T04:12:55;24.60;;;23.30;;
1995;SDS011;38556;47.068;15.408;2023-04-01T04:15:23;22.83;;;21.73;;
1995;SDS011;38556;47.068;15.408;2023-04-01T04:17:50;22.35;;;21.33;;
1995;SDS011;38556;47.068;15.408;2023-04-01T04:20:17;24.58;;;23.27;;
1995;SDS011;38556;47.068;15.408;2023-04-01T04:22:46;21.90;;;20.90;;
1995;SDS011;38556;47.068;15.408;2023-04-01T04:25:13;22.80;;;21.58;;
1995;SDS011;38556;47.068;15.408;2023-04-01T04:27:40;24.17;;;22.98;;
1995;SDS011;38556;47.068;15.408;2023-04-01T04:30:08;23.20;;;22.00;;
1995;SDS011;38556;47.068;15.408;2023-04-01T04:32:36;22.77;;;21.58;;
1995;SDS011;38556;47.068;15.408;2023-04-01T04:35:04;23.73;;;22.30;;
1995;SDS011;38556;47.068;15.408;2023-04-01T04:37:32;23.52;;;22.30;;
1995;SDS011;38556;47.068;15.408;2023-04-01T04:40:02;24.55;;;22.92;;
1995;SDS011;38556;47.068;15.408;2023-04-01T04:42:29;22.48;;;21.38;;
1995;SDS011;38556;47.068;15.408;2023-04-01T04:44:56;23.00;;;21.90;;
1995;SDS011;38556;47.068;15.408;2023-04-01T04:47:24;22.88;;;21.67;;
1995;SDS011;38556;47.068;15.408;2023-04-01T04:49:51;23.85;;;22.35;;
1995;SDS011;38556;47.068;15.408;2023-04-01T04:52:18;24.73;;;22.67;;
1995;SDS011;38556;47.068;15.408;2023-04-01T04:54:45;22.95;;;21.55;;
1995;SDS011;38556;47.068;15.408;2023-04-01T04:57:14;23.10;;;21.60;;
1995;SDS011;38556;47.068;15.408;2023-04-01T04:59:41;22.75;;;21.52;;
1995;SDS011;38556;47.068;15.408;2023-04-01T05:02:08;22.10;;;20.90;;
1995;SDS011;38556;47.068;15.408;2023-04-01T05:04:36;22.45;;;21.05;;
1995;SDS011;38556;47.068;15.408;2023-04-01T05:07:03;21.10;;;20.10;;
1995;SDS011;38556;47.068;15.408;2023-04-01T05:09:31;24.05;;;22.05;;
1995;SDS011;38556;47.068;15.408;2023-04-01T05:11:59;22.70;;;21.52;;
1995;SDS011;38556;47.068;15.408;2023-04-01T05:14:28;22.92;;;21.73;;
1995;SDS011;38556;47.068;15.408;2023-04-01T05:16:55;22.50;;;21.30;;
1995;SDS011;38556;47.068;15.408;2023-04-01T05:19:22;21.60;;;20.50;;
1995;SDS011;38556;47.068;15.408;2023-04-01T05:21:50;23.00;;;21.05;;
1995;SDS011;38556;47.068;15.408;2023-04-01T05:24:18;21.83;;;20.63;;
1995;SDS011;38556;47.068;15.408;2023-04-01T05:26:45;23.00;;;21.70;;
1995;SDS011;38556;47.068;15.408;2023-04-01T05:29:12;22.42;;;21.35;;
1995;SDS011;38556;47.068;15.408;2023-04-01T05:31:41;22.27;;;21.08;;
1995;SDS011;38556;47.068;15.408;2023-04-01T05:34:08;20.55;;;19.40;;
1995;SDS011;38556;47.068;15.408;2023-04-01T05:36:36;21.02;;;19.92;;
1995;SDS011;38556;47.068;15.408;2023-04-01T05:39:03;23.45;;;22.15;;
1995;SDS011;38556;47.068;15.408;2023-04-01T05:41:30;24.73;;;23.13;;
1995;SDS011;38556;47.068;15.408;2023-04-01T05:43:57;20.15;;;19.05;;
1995;SDS011;38556;47.068;15.408;2023-04-01T05:46:25;19.52;;;18.63;;
1995;SDS011;38556;47.068;15.408;2023-04-01T05:48:53;19.95;;;18.95;;
1995;SDS011;38556;47.068;15.408;2023-04-01T05:51:21;20.55;;;19.45;;
1995;SDS011;38556;47.068;15.408;2023-04-01T05:53:48;20.67;;;19.58;;
1995;SDS011;38556;47.068;15.408;2023-04-01T05:56:15;21.75;;;20.55;;
1995;SDS011;38556;47.068;15.408;2023-04-01T05:58:43;23.20;;;21.58;;
1995;SDS011;38556;47.068;15.408;2023-04-01T06:01:13;21.15;;;19.95;;
1995;SDS011;38556;47.068;15.408;2023-04-01T06:03:40;21.23;;;19.98;;
1995;SDS011;38556;47.068;15.408;2023-04-01T06:06:11;19.88;;;18.95;;
1995;SDS011;38556;47.068;15.408;2023-04-01T06:08:42;20.65;;;19.27;;
1995;SDS011;38556;47.068;15.408;2023-04-01T06:11:15;20.23;;;19.13;;
1995;SDS011;38556;47.068;15.408;2023-04-01T06:14:01;20.80;;;19.70;;
1995;SDS011;38556;47.068;15.408;2023-04-01T06:16:55;21.05;;;19.77;;
1995;SDS011;38556;47.068;15.408;2023-04-01T06:19:39;20.20;;;19.20;;
1995;SDS011;38556;47.068;15.408;2023-04-01T06:22:22;22.42;;;20.98;;
1995;SDS011;38556;47.068;15.408;2023-04-01T06:25:22;21.60;;;20.40;;
1995;SDS011;38556;47.068;15.408;2023-04-01T06:28:16;24.05;;;22.65;;
1995;SDS011;38556;47.068;15.408;2023-04-01T06:31:10;23.17;;;21.67;;
1995;SDS011;38556;47.068;15.408;2023-04-01T06:33:50;21.38;;;20.27;;
1995;SDS011;38556;47.068;15.408;2023-04-01T06:36:34;21.27;;;20.17;;
1995;SDS011;38556;47.068;15.408;2023-04-01T06:45:08;22.13;;;20.88;;
1995;SDS011;38556;47.068;15.408;2023-04-01T06:47:47;23.17;;;21.77;;
1995;SDS011;38556;47.068;15.408;2023-04-01T06:50:24;20.48;;;19.58;;
1995;SDS011;38556;47.068;15.408;2023-04-01T06:52:59;22.35;;;20.92;;
1995;SDS011;38556;47.068;15.408;2023-04-01T06:55:34;20.52;;;19.42;;
1995;SDS011;38556;47.068;15.408;2023-04-01T06:58:11;21.52;;;20.45;;
1995;SDS011;38556;47.068;15.408;2023-04-01T07:00:50;22.85;;;21.60;;
1995;SDS011;38556;47.068;15.408;2023-04-01T07:03:26;20.67;;;19.77;;
1995;SDS011;38556;47.068;15.408;2023-04-01T07:06:02;21.73;;;20.63;;
1995;SDS011;38556;47.068;15.408;2023-04-01T07:08:35;21.20;;;20.10;;
1995;SDS011;38556;47.068;15.408;2023-04-01T07:11:11;20.65;;;19.42;;
1995;SDS011;38556;47.068;15.408;2023-04-01T07:13:46;21.75;;;20.17;;
1995;SDS011;38556;47.068;15.408;2023-04-01T07:16:17;21.92;;;20.83;;
1995;SDS011;38556;47.068;15.408;2023-04-01T07:18:48;21.63;;;20.35;;
1995;SDS011;38556;47.068;15.408;2023-04-01T07:21:25;20.60;;;19.60;;
1995;SDS011;38556;47.068;15.408;2023-04-01T07:23:56;21.88;;;20.45;;
1995;SDS011;38556;47.068;15.408;2023-04-01T07:26:29;21.85;;;20.70;;
1995;SDS011;38556;47.068;15.408;2023-04-01T07:28:57;20.65;;;19.55;;
1995;SDS011;38556;47.068;15.408;2023-04-01T07:31:36;21.20;;;19.80;;
1995;SDS011;38556;47.068;15.408;2023-04-01T07:34:18;20.45;;;19.52;;
1995;SDS011;38556;47.068;15.408;2023-04-01T07:36:51;19.58;;;18.67;;
1995;SDS011;38556;47.068;15.408;2023-04-01T07:39:29;21.13;;;20.13;;
1995;SDS011;38556;47.068;15.408;2023-04-01T07:42:06;22.15;;;20.98;;
1995;SDS011;38556;47.068;15.408;2023-04-01T07:44:36;21.17;;;20.05;;
1995;SDS011;38556;47.068;15.408;2023-04-01T07:47:20;20.55;;;19.55;;
1995;SDS011;38556;47.068;15.408;2023-04-01T07:49:59;28.75;;;26.73;;
1995;SDS011;38556;47.068;15.408;2023-04-01T07:52:35;22.02;;;20.73;;
1995;SDS011;38556;47.068;15.408;2023-04-01T07:55:10;23.83;;;22.25;;
1995;SDS011;38556;47.068;15.408;2023-04-01T07:57:46;22.58;;;21.35;;
1995;SDS011;38556;47.068;15.408;2023-04-01T08:00:20;22.05;;;20.75;;
1995;SDS011;38556;47.068;15.408;2023-04-01T08:02:55;21.40;;;20.30;;
1995;SDS011;38556;47.068;15.408;2023-04-01T08:05:33;22.27;;;20.98;;
1995;SDS011;38556;47.068;15.408;2023-04-01T08:08:09;23.58;;;22.30;;
1995;SDS011;38556;47.068;15.408;2023-04-01T08:10:45;24.83;;;22.25;;
1995;SDS011;38556;47.068;15.408;2023-04-01T08:13:20;23.75;;;22.48;;
1995;SDS011;38556;47.068;15.408;2023-04-01T08:15:55;22.58;;;21.48;;
1995;SDS011;38556;47.068;15.408;2023-04-01T08:18:34;24.40;;;23.00;;
1995;SDS011;38556;47.068;15.408;2023-04-01T08:21:10;22.80;;;21.60;;
1995;SDS011;38556;47.068;15.408;2023-04-01T08:23:41;22.80;;;21.60;;
1995;SDS011;38556;47.068;15.408;2023-04-01T08:26:13;23.45;;;22.15;;
1995;SDS011;38556;47.068;15.408;2023-04-01T08:28:50;22.35;;;21.25;;
1995;SDS011;38556;47.068;15.408;2023-04-01T08:31:22;22.45;;;21.27;;
1995;SDS011;38556;47.068;15.408;2023-04-01T08:33:56;22.73;;;21.38;;
1995;SDS011;38556;47.068;15.408;2023-04-01T08:36:24;22.67;;;21.42;;
1995;SDS011;38556;47.068;15.408;2023-04-01T08:38:55;21.90;;;20.80;;
1995;SDS011;38556;47.068;15.408;2023-04-01T08:41:42;22.08;;;21.08;;
1995;SDS011;38556;47.068;15.408;2023-04-01T08:44:43;22.65;;;21.48;;
1995;SDS011;38556;47.068;15.408;2023-04-01T08:47:34;21.75;;;20.75;;
1995;SDS011;38556;47.068;15.408;2023-04-01T08:50:35;21.98;;;20.85;;
1995;SDS011;38556;47.068;15.408;2023-04-01T08:53:16;22.02;;;20.58;;
1995;SDS011;38556;47.068;15.408;2023-04-01T08:55:56;21.77;;;20.67;;
1995;SDS011;38556;47.068;15.408;2023-04-01T09:01:55;23.45;;;22.05;;
1995;SDS011;38556;47.068;15.408;2023-04-01T09:04:47;21.30;;;20.15;;
1995;SDS011;38556;47.068;15.408;2023-04-01T09:07:35;21.67;;;20.67;;
1995;SDS011;38556;47.068;15.408;2023-04-01T09:10:15;21.90;;;20.70;;
1995;SDS011;38556;47.068;15.408;2023-04-01T09:13:14;22.70;;;21.60;;
1995;SDS011;38556;47.068;15.408;2023-04-01T09:16:18;22.25;;;21.15;;
1995;SDS011;38556;47.068;15.408;2023-04-01T09:21:53;20.73;;;19.73;;
1995;SDS011;38556;47.068;15.408;2023-04-01T09:24:52;20.77;;;19.77;;
1995;SDS011;38556;47.068;15.408;2023-04-01T09:27:54;20.13;;;19.08;;
1995;SDS011;38556;47.068;15.408;2023-04-01T09:36:42;20.65;;;19.75;;
1995;SDS011;38556;47.068;15.408;2023-04-01T09:39:18;20.23;;;19.23;;
1995;SDS011;38556;47.068;15.408;2023-04-01T09:42:06;20.80;;;19.80;;
1995;SDS011;38556;47.068;15.408;2023-04-01T09:44:44;21.10;;;20.20;;
1995;SDS011;38556;47.068;15.408;2023-04-01T09:47:22;20.67;;;19.67;;
1995;SDS011;38556;47.068;15.408;2023-04-01T09:50:00;20.02;;;18.80;;
1995;SDS011;38556;47.068;15.408;2023-04-01T09:52:46;19.05;;;18.15;;
1995;SDS011;38556;47.068;15.408;2023-04-01T09:55:45;19.88;;;18.90;;
1995;SDS011;38556;47.068;15.408;2023-04-01T09:58:49;19.25;;;18.45;;
1995;SDS011;38556;47.068;15.408;2023-04-01T10:11:45;19.50;;;18.70;;
1995;SDS011;38556;47.068;15.408;2023-04-01T10:14:45;18.30;;;17.50;;
1995;SDS011;38556;47.068;15.408;2023-04-01T10:17:47;18.98;;;18.17;;
1995;SDS011;38556;47.068;15.408;2023-04-01T10:20:43;18.63;;;17.92;;
1995;SDS011;38556;47.068;15.408;2023-04-01T10:23:21;18.13;;;17.42;;
1995;SDS011;38556;47.068;15.408;2023-04-01T10:35:14;18.77;;;17.98;;
1995;SDS011;38556;47.068;15.408;2023-04-01T10:38:05;18.20;;;17.50;;
1995;SDS011;38556;47.068;15.408;2023-04-01T10:41:06;18.63;;;17.75;;
1995;SDS011;38556;47.068;15.408;2023-04-01T10:50:17;18.17;;;17.48;;
1995;SDS011;38556;47.068;15.408;2023-04-01T10:59:20;18.45;;;17.75;;
1995;SDS011;38556;47.068;15.408;2023-04-01T11:20:38;17.00;;;16.30;;
1995;SDS011;38556;47.068;15.408;2023-04-01T11:23:45;17.60;;;16.90;;
1995;SDS011;38556;47.068;15.408;2023-04-01T11:26:27;17.83;;;17.13;;
1995;SDS011;38556;47.068;15.408;2023-04-01T11:32:07;17.52;;;16.83;;
1995;SDS011;38556;47.068;15.408;2023-04-01T11:34:53;17.40;;;16.80;;
1995;SDS011;38556;47.068;15.408;2023-04-01T11:37:33;17.27;;;16.67;;
1995;SDS011;38556;47.068;15.408;2023-04-01T11:40:11;17.05;;;16.45;;
1995;SDS011;38556;47.068;15.408;2023-04-01T11:42:51;17.80;;;17.00;;
1995;SDS011;38556;47.068;15.408;2023-04-01T11:45:23;16.77;;;16.17;;
1995;SDS011;38556;47.068;15.408;2023-04-01T11:48:19;16.92;;;16.33;;
1995;SDS011;38556;47.068;15.408;2023-04-01T11:54:17;17.98;;;17.27;;
1995;SDS011;38556;47.068;15.408;2023-04-01T11:57:09;17.48;;;16.77;;
1995;SDS011;38556;47.068;15.408;2023-04-01T12:00:03;17.30;;;16.70;;
1995;SDS011;38556;47.068;15.408;2023-04-01T12:02:47;17.40;;;16.80;;
1995;SDS011;38556;47.068;15.408;2023-04-01T12:05:37;18.00;;;17.30;;
1995;SDS011;38556;47.068;15.408;2023-04-01T12:11:03;17.90;;;17.15;;
1995;SDS011;38556;47.068;15.408;2023-04-01T12:13:42;18.50;;;17.52;;
1995;SDS011;38556;47.068;15.408;2023-04-01T12:16:21;17.80;;;17.00;;
1995;SDS011;38556;47.068;15.408;2023-04-01T12:18:58;17.53;;;16.83;;
1995;SDS011;38556;47.068;15.408;2023-04-01T12:21:32;17.20;;;16.50;;
1995;SDS011;38556;47.068;15.408;2023-04-01T12:27:17;18.17;;;17.37;;
1995;SDS011;38556;47.068;15.408;2023-04-01T12:32:51;17.73;;;17.00;;
1995;SDS011;38556;47.068;15.408;2023-04-01T12:35:24;17.90;;;17.20;;
1995;SDS011;38556;47.068;15.408;2023-04-01T12:38:15;18.30;;;17.50;;
1995;SDS011;38556;47.068;15.408;2023-04-01T12:41:02;18.53;;;17.83;;
1995;SDS011;38556;47.068;15.408;2023-04-01T12:46:32;17.37;;;16.77;;
1995;SDS011;38556;47.068;15.408;2023-04-01T12:49:12;18.87;;;18.17;;
1995;SDS011;38556;47.068;15.408;2023-04-01T12:52:07;18.92;;;18.05;;
1995;SDS011;38556;47.068;15.408;2023-04-01T12:54:48;18.08;;;17.38;;
1995;SDS011;38556;47.068;15.408;2023-04-01T12:57:45;19.10;;;18.40;;
1995;SDS011;38556;47.068;15.408;2023-04-01T13:00:30;18.05;;;17.25;;
1995;SDS011;38556;47.068;15.408;2023-04-01T13:03:16;18.23;;;17.52;;
1995;SDS011;38556;47.068;15.408;2023-04-01T13:05:56;18.42;;;17.73;;
1995;SDS011;38556;47.068;15.408;2023-04-01T13:08:48;18.15;;;17.45;;
1995;SDS011;38556;47.068;15.408;2023-04-01T13:11:24;18.08;;;17.38;;
1995;SDS011;38556;47.068;15.408;2023-04-01T13:14:15;18.60;;;17.90;;
1995;SDS011;38556;47.068;15.408;2023-04-01T13:17:13;18.40;;;17.40;;
1995;SDS011;38556;47.068;15.408;2023-04-01T13:19:47;17.60;;;16.90;;
1995;SDS011;38556;47.068;15.408;2023-04-01T13:22:20;17.83;;;17.13;;
1995;SDS011;38556;47.068;15.408;2023-04-01T13:24:57;17.90;;;17.10;;
1995;SDS011;38556;47.068;15.408;2023-04-01T13:27:34;17.20;;;16.60;;
1995;SDS011;38556;47.068;15.408;2023-04-01T13:30:09;16.80;;;16.20;;
1995;SDS011;38556;47.068;15.408;2023-04-01T13:32:53;18.40;;;17.70;;
1995;SDS011;38556;47.068;15.408;2023-04-01T13:35:30;17.30;;;16.60;;
1995;SDS011;38556;47.068;15.408;2023-04-01T13:38:11;18.88;;;18.17;;
1995;SDS011;38556;47.068;15.408;2023-04-01T13:41:01;18.90;;;18.10;;
1995;SDS011;38556;47.068;15.408;2023-04-01T13:43:38;18.73;;;18.03;;
1995;SDS011;38556;47.068;15.408;2023-04-01T13:46:15;17.47;;;16.87;;
1995;SDS011;38556;47.068;15.408;2023-04-01T13:51:57;18.30;;;17.60;;
1995;SDS011;38556;47.068;15.408;2023-04-01T13:57:28;18.50;;;17.80;;
1995;SDS011;38556;47.068;15.408;2023-04-01T14:00:21;17.37;;;16.70;;
1995;SDS011;38556;47.068;15.408;2023-04-01T14:03:11;18.10;;;17.40;;
1995;SDS011;38556;47.068;15.408;2023-04-01T14:06:03;18.23;;;17.53;;
1995;SDS011;38556;47.068;15.408;2023-04-01T14:08:43;18.40;;;17.70;;
1995;SDS011;38556;47.068;15.408;2023-04-01T14:11:28;18.40;;;17.60;;
1995;SDS011;38556;47.068;15.408;2023-04-01T14:14:04;17.40;;;16.70;;
1995;SDS011;38556;47.068;15.408;2023-04-01T14:16:55;17.53;;;16.83;;
1995;SDS011;38556;47.068;15.408;2023-04-01T14:19:39;18.30;;;17.60;;
1995;SDS011;38556;47.068;15.408;2023-04-01T14:22:27;18.37;;;17.67;;
1995;SDS011;38556;47.068;15.408;2023-04-01T14:28:08;18.47;;;17.77;;
1995;SDS011;38556;47.068;15.408;2023-04-01T14:30:48;18.60;;;17.90;;
1995;SDS011;38556;47.068;15.408;2023-04-01T14:33:30;18.50;;;17.70;;
1995;SDS011;38556;47.068;15.408;2023-04-01T14:36:19;19.60;;;18.70;;
1995;SDS011;38556;47.068;15.408;2023-04-01T14:39:12;18.67;;;17.97;;
1995;SDS011;38556;47.068;15.408;2023-04-01T14:41:51;18.50;;;17.80;;
1995;SDS011;38556;47.068;15.408;2023-04-01T14:44:45;18.10;;;17.40;;
1995;SDS011;38556;47.068;15.408;2023-04-01T14:47:25;18.07;;;17.37;;
1995;SDS011;38556;47.068;15.408;2023-04-01T14:50:08;18.03;;;17.23;;
1995;SDS011;38556;47.068;15.408;2023-04-01T14:52:40;17.80;;;17.10;;
1995;SDS011;38556;47.068;15.408;2023-04-01T14:55:20;26.20;;;24.40;;
1995;SDS011;38556;47.068;15.408;2023-04-01T14:58:10;29.73;;;27.23;;
1995;SDS011;38556;47.068;15.408;2023-04-01T15:00:41;23.07;;;21.77;;
1995;SDS011;38556;47.068;15.408;2023-04-01T15:03:15;21.33;;;20.23;;
1995;SDS011;38556;47.068;15.408;2023-04-01T15:05:49;19.83;;;18.70;;
1995;SDS011;38556;47.068;15.408;2023-04-01T15:08:22;18.70;;;17.80;;
1995;SDS011;38556;47.068;15.408;2023-04-01T15:10:58;18.43;;;17.73;;
1995;SDS011;38556;47.068;15.408;2023-04-01T15:16:39;18.87;;;17.97;;
1995;SDS011;38556;47.068;15.408;2023-04-01T15:19:15;18.47;;;17.77;;
1995;SDS011;38556;47.068;15.408;2023-04-01T15:21:55;17.90;;;17.20;;
1995;SDS011;38556;47.068;15.408;2023-04-01T15:24:45;19.23;;;18.43;;
1995;SDS011;38556;47.068;15.408;2023-04-01T15:27:22;17.07;;;16.37;;
1995;SDS011;38556;47.068;15.408;2023-04-01T15:30:02;18.30;;;17.40;;
1995;SDS011;38556;47.068;15.408;2023-04-01T15:32:51;18.87;;;18.17;;
1995;SDS011;38556;47.068;15.408;2023-04-01T15:35:32;19.33;;;18.43;;
1995;SDS011;38556;47.068;15.408;2023-04-01T15:38:06;18.87;;;17.30;;
1995;SDS011;38556;47.068;15.408;2023-04-01T15:40:42;19.10;;;17.93;;
1995;SDS011;38556;47.068;15.408;2023-04-01T15:43:18;19.13;;;18.20;;
1995;SDS011;38556;47.068;15.408;2023-04-01T15:46:08;21.67;;;19.50;;
1995;SDS011;38556;47.068;15.408;2023-04-01T15:48:54;30.27;;;20.63;;
1995;SDS011;38556;47.068;15.408;2023-04-01T15:51:35;19.60;;;18.03;;
1995;SDS011;38556;47.068;15.408;2023-04-01T15:54:32;19.37;;;17.67;;
1995;SDS011;38556;47.068;15.408;2023-04-01T15:57:24;21.13;;;19.23;;
1995;SDS011;38556;47.068;15.408;2023-04-01T16:00:05;24.90;;;22.30;;
1995;SDS011;38556;47.068;15.408;2023-04-01T16:02:40;22.87;;;20.30;;
1995;SDS011;38556;47.068;15.408;2023-04-01T16:05:24;31.33;;;20.30;;
1995;SDS011;38556;47.068;15.408;2023-04-01T16:29:00;28.37;;;25.87;;
1995;SDS011;38556;47.068;15.408;2023-04-01T16:31:34;23.73;;;22.23;;
1995;SDS011;38556;47.068;15.408;2023-04-01T16:34:14;26.83;;;24.80;;
1995;SDS011;38556;47.068;15.408;2023-04-01T16:36:45;22.87;;;21.57;;
1995;SDS011;38556;47.068;15.408;2023-04-01T16:39:22;26.33;;;24.50;;
1995;SDS011;38556;47.068;15.408;2023-04-01T16:42:09;20.30;;;19.30;;
1995;SDS011;38556;47.068;15.408;2023-04-01T16:44:56;22.40;;;21.00;;
1995;SDS011;38556;47.068;15.408;2023-04-01T16:47:29;19.33;;;18.33;;
1995;SDS011;38556;47.068;15.408;2023-04-01T16:49:59;19.70;;;18.80;;
1995;SDS011;38556;47.068;15.408;2023-04-01T16:52:44;19.50;;;18.70;;
1995;SDS011;38556;47.068;15.408;2023-04-01T16:55:34;18.67;;;17.87;;
1995;SDS011;38556;47.068;15.408;2023-04-01T16:58:08;19.13;;;18.30;;
1995;SDS011;38556;47.068;15.408;2023-04-01T17:00:44;19.40;;;18.60;;
1995;SDS011;38556;47.068;15.408;2023-04-01T17:03:17;20.30;;;19.20;;
1995;SDS011;38556;47.068;15.408;2023-04-01T17:05:52;19.80;;;19.00;;
1995;SDS011;38556;47.068;15.408;2023-04-01T17:08:27;21.10;;;19.90;;
1995;SDS011;38556;47.068;15.408;2023-04-01T17:11:04;20.80;;;19.70;;
1995;SDS011;38556;47.068;15.408;2023-04-01T17:13:46;19.33;;;18.43;;
1995;SDS011;38556;47.068;15.408;2023-04-01T17:16:24;19.43;;;18.63;;
1995;SDS011;38556;47.068;15.408;2023-04-01T17:19:14;20.40;;;19.40;;